GB-0332 weather

Bowerchalke Airfield
Bowerchalke, England, United Kingdom

Public forecast

Using degrees Celsius for public forecast. Weather courtesy of forecast.io.

Closest aviation weather report (METAR) to Bowerchalke Airfield

Closest report is Bournemouth Airport, 13.5 nm (24.9 km) SSE. Retrieved 2020/04/08 16:50 UTC (47 minutes ago):

EGHH 081650Z 18005KT 110V260 CAVOK 18/09 Q1022

Closest aviation forecast (TAF) to Bowerchalke Airfield

Forecast is more than 12 hours old.

Closest forecast is Bournemouth Airport, 13.5 nm (24.9 km) SSE. Retrieved 2020/02/21 21:06 UTC (2 months ago):

TAF EGHH 210200Z 2021/2123 CNL